sensor_id;sensor_type;location;lat;lon;timestamp;P1;durP1;ratioP1;P2;durP2;ratioP2
10823;SDS011;39116;59.332;18.034;2022-10-24T00:00:39;4.03;;;3.58;;
10823;SDS011;39116;59.332;18.034;2022-10-24T00:03:06;4.20;;;3.33;;
10823;SDS011;39116;59.332;18.034;2022-10-24T00:05:32;4.45;;;3.28;;
10823;SDS011;39116;59.332;18.034;2022-10-24T00:07:59;4.15;;;3.75;;
10823;SDS011;39116;59.332;18.034;2022-10-24T00:10:25;5.68;;;3.65;;
10823;SDS011;39116;59.332;18.034;2022-10-24T00:12:53;3.97;;;3.35;;
10823;SDS011;39116;59.332;18.034;2022-10-24T00:15:20;4.35;;;3.20;;
10823;SDS011;39116;59.332;18.034;2022-10-24T00:17:46;4.82;;;3.60;;
10823;SDS011;39116;59.332;18.034;2022-10-24T00:20:13;4.18;;;3.50;;
10823;SDS011;39116;59.332;18.034;2022-10-24T00:22:39;4.15;;;3.65;;
10823;SDS011;39116;59.332;18.034;2022-10-24T00:25:06;5.00;;;3.50;;
10823;SDS011;39116;59.332;18.034;2022-10-24T00:27:33;4.22;;;3.50;;
10823;SDS011;39116;59.332;18.034;2022-10-24T00:30:00;5.57;;;3.72;;
10823;SDS011;39116;59.332;18.034;2022-10-24T00:32:27;4.10;;;3.38;;
10823;SDS011;39116;59.332;18.034;2022-10-24T00:34:54;4.60;;;3.58;;
10823;SDS011;39116;59.332;18.034;2022-10-24T00:37:20;4.55;;;3.35;;
10823;SDS011;39116;59.332;18.034;2022-10-24T00:39:47;4.70;;;3.65;;
10823;SDS011;39116;59.332;18.034;2022-10-24T00:42:13;5.82;;;3.70;;
10823;SDS011;39116;59.332;18.034;2022-10-24T00:44:40;5.57;;;3.28;;
10823;SDS011;39116;59.332;18.034;2022-10-24T00:47:09;4.20;;;3.35;;
10823;SDS011;39116;59.332;18.034;2022-10-24T00:49:38;4.35;;;3.20;;
10823;SDS011;39116;59.332;18.034;2022-10-24T00:52:07;4.80;;;3.20;;
10823;SDS011;39116;59.332;18.034;2022-10-24T00:54:34;4.55;;;3.22;;
10823;SDS011;39116;59.332;18.034;2022-10-24T00:57:03;3.45;;;3.05;;
10823;SDS011;39116;59.332;18.034;2022-10-24T00:59:31;4.05;;;3.30;;
10823;SDS011;39116;59.332;18.034;2022-10-24T01:01:58;3.25;;;2.95;;
10823;SDS011;39116;59.332;18.034;2022-10-24T01:04:26;3.38;;;3.00;;
10823;SDS011;39116;59.332;18.034;2022-10-24T01:06:57;3.22;;;2.90;;
10823;SDS011;39116;59.332;18.034;2022-10-24T01:09:30;3.33;;;2.95;;
10823;SDS011;39116;59.332;18.034;2022-10-24T01:12:02;3.20;;;2.90;;
10823;SDS011;39116;59.332;18.034;2022-10-24T01:14:31;3.60;;;3.25;;
10823;SDS011;39116;59.332;18.034;2022-10-24T01:17:03;3.85;;;3.35;;
10823;SDS011;39116;59.332;18.034;2022-10-24T01:19:42;3.58;;;2.88;;
10823;SDS011;39116;59.332;18.034;2022-10-24T01:22:14;2.95;;;2.70;;
10823;SDS011;39116;59.332;18.034;2022-10-24T01:24:47;3.95;;;2.70;;
10823;SDS011;39116;59.332;18.034;2022-10-24T01:27:32;3.47;;;2.60;;
10823;SDS011;39116;59.332;18.034;2022-10-24T01:30:05;6.43;;;2.97;;
10823;SDS011;39116;59.332;18.034;2022-10-24T01:32:43;3.55;;;3.10;;
10823;SDS011;39116;59.332;18.034;2022-10-24T01:35:19;2.70;;;2.50;;
10823;SDS011;39116;59.332;18.034;2022-10-24T01:37:48;3.97;;;3.00;;
10823;SDS011;39116;59.332;18.034;2022-10-24T01:40:19;3.63;;;2.60;;
10823;SDS011;39116;59.332;18.034;2022-10-24T01:42:46;3.63;;;2.67;;
10823;SDS011;39116;59.332;18.034;2022-10-24T01:45:17;3.05;;;2.72;;
10823;SDS011;39116;59.332;18.034;2022-10-24T01:47:47;2.92;;;2.60;;
10823;SDS011;39116;59.332;18.034;2022-10-24T01:50:15;3.40;;;2.60;;
10823;SDS011;39116;59.332;18.034;2022-10-24T01:52:43;4.38;;;2.80;;
10823;SDS011;39116;59.332;18.034;2022-10-24T01:55:10;4.43;;;2.60;;
10823;SDS011;39116;59.332;18.034;2022-10-24T01:57:37;3.85;;;2.53;;
10823;SDS011;39116;59.332;18.034;2022-10-24T02:00:05;2.95;;;2.63;;
10823;SDS011;39116;59.332;18.034;2022-10-24T02:02:33;4.88;;;2.85;;
10823;SDS011;39116;59.332;18.034;2022-10-24T02:05:02;3.45;;;3.13;;
10823;SDS011;39116;59.332;18.034;2022-10-24T02:07:32;3.50;;;2.70;;
10823;SDS011;39116;59.332;18.034;2022-10-24T02:10:00;3.33;;;2.60;;
10823;SDS011;39116;59.332;18.034;2022-10-24T02:12:28;3.70;;;2.63;;
10823;SDS011;39116;59.332;18.034;2022-10-24T02:14:56;4.65;;;2.90;;
10823;SDS011;39116;59.332;18.034;2022-10-24T02:17:23;2.70;;;2.50;;
10823;SDS011;39116;59.332;18.034;2022-10-24T02:19:51;2.67;;;2.28;;
10823;SDS011;39116;59.332;18.034;2022-10-24T02:22:21;3.50;;;2.47;;
10823;SDS011;39116;59.332;18.034;2022-10-24T02:24:49;3.28;;;2.63;;
10823;SDS011;39116;59.332;18.034;2022-10-24T02:27:20;3.85;;;2.45;;
10823;SDS011;39116;59.332;18.034;2022-10-24T02:29:49;2.88;;;2.53;;
10823;SDS011;39116;59.332;18.034;2022-10-24T02:32:17;2.90;;;2.60;;
10823;SDS011;39116;59.332;18.034;2022-10-24T02:34:45;4.03;;;2.75;;
10823;SDS011;39116;59.332;18.034;2022-10-24T02:37:13;3.35;;;2.40;;
10823;SDS011;39116;59.332;18.034;2022-10-24T02:39:41;3.95;;;2.42;;
10823;SDS011;39116;59.332;18.034;2022-10-24T02:42:09;2.78;;;2.30;;
10823;SDS011;39116;59.332;18.034;2022-10-24T02:44:36;2.50;;;2.30;;
10823;SDS011;39116;59.332;18.034;2022-10-24T02:47:04;2.95;;;2.40;;
10823;SDS011;39116;59.332;18.034;2022-10-24T02:49:31;4.43;;;2.22;;
10823;SDS011;39116;59.332;18.034;2022-10-24T02:51:58;2.65;;;2.40;;
10823;SDS011;39116;59.332;18.034;2022-10-24T02:54:26;3.13;;;1.95;;
10823;SDS011;39116;59.332;18.034;2022-10-24T02:56:53;2.47;;;2.20;;
10823;SDS011;39116;59.332;18.034;2022-10-24T02:59:21;2.85;;;2.30;;
10823;SDS011;39116;59.332;18.034;2022-10-24T03:01:48;2.65;;;2.45;;
10823;SDS011;39116;59.332;18.034;2022-10-24T03:04:14;2.20;;;2.00;;
10823;SDS011;39116;59.332;18.034;2022-10-24T03:06:41;2.53;;;2.03;;
10823;SDS011;39116;59.332;18.034;2022-10-24T03:09:08;2.72;;;2.10;;
10823;SDS011;39116;59.332;18.034;2022-10-24T03:11:36;2.47;;;1.95;;
10823;SDS011;39116;59.332;18.034;2022-10-24T03:14:02;3.80;;;2.10;;
10823;SDS011;39116;59.332;18.034;2022-10-24T03:16:29;2.15;;;1.90;;
10823;SDS011;39116;59.332;18.034;2022-10-24T03:18:55;2.95;;;1.95;;
10823;SDS011;39116;59.332;18.034;2022-10-24T03:21:22;2.35;;;2.00;;
10823;SDS011;39116;59.332;18.034;2022-10-24T03:23:48;2.65;;;1.95;;
10823;SDS011;39116;59.332;18.034;2022-10-24T03:26:15;2.13;;;1.92;;
10823;SDS011;39116;59.332;18.034;2022-10-24T03:28:42;3.13;;;2.10;;
10823;SDS011;39116;59.332;18.034;2022-10-24T03:31:09;2.35;;;2.03;;
10823;SDS011;39116;59.332;18.034;2022-10-24T03:33:36;2.15;;;1.67;;
10823;SDS011;39116;59.332;18.034;2022-10-24T03:36:02;3.22;;;2.30;;
10823;SDS011;39116;59.332;18.034;2022-10-24T03:38:29;3.83;;;1.60;;
10823;SDS011;39116;59.332;18.034;2022-10-24T03:40:55;2.10;;;1.90;;
10823;SDS011;39116;59.332;18.034;2022-10-24T03:43:22;1.70;;;1.48;;
10823;SDS011;39116;59.332;18.034;2022-10-24T03:45:50;2.13;;;1.40;;
10823;SDS011;39116;59.332;18.034;2022-10-24T03:48:16;2.05;;;1.67;;
10823;SDS011;39116;59.332;18.034;2022-10-24T03:50:43;2.20;;;1.60;;
10823;SDS011;39116;59.332;18.034;2022-10-24T03:53:09;2.90;;;1.75;;
10823;SDS011;39116;59.332;18.034;2022-10-24T03:55:36;1.85;;;1.65;;
10823;SDS011;39116;59.332;18.034;2022-10-24T03:58:02;1.98;;;1.58;;
10823;SDS011;39116;59.332;18.034;2022-10-24T04:00:29;1.70;;;1.55;;
10823;SDS011;39116;59.332;18.034;2022-10-24T04:02:59;2.10;;;1.63;;
10823;SDS011;39116;59.332;18.034;2022-10-24T04:05:26;1.48;;;1.35;;
10823;SDS011;39116;59.332;18.034;2022-10-24T04:07:53;1.40;;;1.30;;
10823;SDS011;39116;59.332;18.034;2022-10-24T04:10:19;3.17;;;1.63;;
10823;SDS011;39116;59.332;18.034;2022-10-24T04:12:45;1.52;;;1.38;;
10823;SDS011;39116;59.332;18.034;2022-10-24T04:15:12;2.70;;;1.58;;
10823;SDS011;39116;59.332;18.034;2022-10-24T04:17:39;1.60;;;1.48;;
10823;SDS011;39116;59.332;18.034;2022-10-24T04:20:07;1.55;;;1.40;;
10823;SDS011;39116;59.332;18.034;2022-10-24T04:22:33;2.15;;;1.45;;
10823;SDS011;39116;59.332;18.034;2022-10-24T04:25:00;3.05;;;1.77;;
10823;SDS011;39116;59.332;18.034;2022-10-24T04:27:26;1.67;;;1.10;;
10823;SDS011;39116;59.332;18.034;2022-10-24T04:29:53;1.30;;;1.20;;
10823;SDS011;39116;59.332;18.034;2022-10-24T04:32:20;2.03;;;1.13;;
10823;SDS011;39116;59.332;18.034;2022-10-24T04:34:46;1.67;;;1.20;;
10823;SDS011;39116;59.332;18.034;2022-10-24T04:37:14;1.42;;;1.05;;
10823;SDS011;39116;59.332;18.034;2022-10-24T04:39:40;1.85;;;1.05;;
10823;SDS011;39116;59.332;18.034;2022-10-24T04:42:07;1.45;;;1.20;;
10823;SDS011;39116;59.332;18.034;2022-10-24T04:44:33;1.40;;;1.10;;
10823;SDS011;39116;59.332;18.034;2022-10-24T04:47:00;1.70;;;1.00;;
10823;SDS011;39116;59.332;18.034;2022-10-24T04:49:26;3.08;;;1.30;;
10823;SDS011;39116;59.332;18.034;2022-10-24T04:51:53;1.20;;;0.90;;
10823;SDS011;39116;59.332;18.034;2022-10-24T04:54:21;1.88;;;1.02;;
10823;SDS011;39116;59.332;18.034;2022-10-24T04:56:47;1.52;;;1.00;;
10823;SDS011;39116;59.332;18.034;2022-10-24T04:59:14;1.13;;;1.00;;
10823;SDS011;39116;59.332;18.034;2022-10-24T05:01:40;1.95;;;1.00;;
10823;SDS011;39116;59.332;18.034;2022-10-24T05:04:07;1.23;;;0.93;;
10823;SDS011;39116;59.332;18.034;2022-10-24T05:06:33;1.17;;;1.02;;
10823;SDS011;39116;59.332;18.034;2022-10-24T05:09:00;1.60;;;0.90;;
10823;SDS011;39116;59.332;18.034;2022-10-24T05:11:28;1.10;;;1.00;;
10823;SDS011;39116;59.332;18.034;2022-10-24T05:13:54;2.03;;;1.13;;
10823;SDS011;39116;59.332;18.034;2022-10-24T05:16:21;1.10;;;0.90;;
10823;SDS011;39116;59.332;18.034;2022-10-24T05:18:47;1.08;;;0.95;;
10823;SDS011;39116;59.332;18.034;2022-10-24T05:21:14;1.02;;;0.80;;
10823;SDS011;39116;59.332;18.034;2022-10-24T05:23:41;2.05;;;0.90;;
10823;SDS011;39116;59.332;18.034;2022-10-24T05:26:08;0.80;;;0.80;;
10823;SDS011;39116;59.332;18.034;2022-10-24T05:28:35;1.80;;;0.93;;
10823;SDS011;39116;59.332;18.034;2022-10-24T05:31:02;3.97;;;0.93;;
10823;SDS011;39116;59.332;18.034;2022-10-24T05:33:28;1.15;;;0.77;;
10823;SDS011;39116;59.332;18.034;2022-10-24T05:35:55;0.90;;;0.90;;
10823;SDS011;39116;59.332;18.034;2022-10-24T05:38:22;0.90;;;0.90;;
10823;SDS011;39116;59.332;18.034;2022-10-24T05:40:48;3.67;;;1.10;;
10823;SDS011;39116;59.332;18.034;2022-10-24T05:43:15;1.13;;;0.77;;
10823;SDS011;39116;59.332;18.034;2022-10-24T05:45:43;1.23;;;0.85;;
10823;SDS011;39116;59.332;18.034;2022-10-24T05:48:10;0.98;;;0.63;;
10823;SDS011;39116;59.332;18.034;2022-10-24T05:50:36;2.20;;;0.90;;
10823;SDS011;39116;59.332;18.034;2022-10-24T05:53:03;2.35;;;0.80;;
10823;SDS011;39116;59.332;18.034;2022-10-24T05:55:29;1.08;;;0.88;;
10823;SDS011;39116;59.332;18.034;2022-10-24T05:57:57;2.80;;;0.95;;
10823;SDS011;39116;59.332;18.034;2022-10-24T06:00:24;1.80;;;1.00;;
10823;SDS011;39116;59.332;18.034;2022-10-24T06:02:52;1.08;;;0.80;;
10823;SDS011;39116;59.332;18.034;2022-10-24T06:05:18;1.40;;;0.88;;
10823;SDS011;39116;59.332;18.034;2022-10-24T06:07:45;1.38;;;0.77;;
10823;SDS011;39116;59.332;18.034;2022-10-24T06:10:12;2.83;;;1.08;;
10823;SDS011;39116;59.332;18.034;2022-10-24T06:12:38;1.00;;;0.80;;
10823;SDS011;39116;59.332;18.034;2022-10-24T06:15:06;1.70;;;0.80;;
10823;SDS011;39116;59.332;18.034;2022-10-24T06:17:33;1.05;;;0.80;;
10823;SDS011;39116;59.332;18.034;2022-10-24T06:20:01;1.48;;;1.00;;
10823;SDS011;39116;59.332;18.034;2022-10-24T06:22:27;1.60;;;0.77;;
10823;SDS011;39116;59.332;18.034;2022-10-24T06:24:54;1.92;;;0.88;;
10823;SDS011;39116;59.332;18.034;2022-10-24T06:27:21;1.63;;;0.80;;
10823;SDS011;39116;59.332;18.034;2022-10-24T06:29:47;1.50;;;0.90;;
10823;SDS011;39116;59.332;18.034;2022-10-24T06:32:14;5.50;;;0.90;;
10823;SDS011;39116;59.332;18.034;2022-10-24T06:34:40;1.10;;;0.80;;
10823;SDS011;39116;59.332;18.034;2022-10-24T06:37:08;2.95;;;1.10;;
10823;SDS011;39116;59.332;18.034;2022-10-24T06:39:35;2.90;;;1.00;;
10823;SDS011;39116;59.332;18.034;2022-10-24T06:42:01;1.55;;;0.80;;
10823;SDS011;39116;59.332;18.034;2022-10-24T06:44:28;1.55;;;0.98;;
10823;SDS011;39116;59.332;18.034;2022-10-24T06:46:54;2.53;;;0.90;;
10823;SDS011;39116;59.332;18.034;2022-10-24T06:49:21;1.10;;;0.73;;
10823;SDS011;39116;59.332;18.034;2022-10-24T06:51:47;1.20;;;0.90;;
10823;SDS011;39116;59.332;18.034;2022-10-24T06:54:15;15.35;;;11.90;;
10823;SDS011;39116;59.332;18.034;2022-10-24T06:56:42;5.55;;;4.32;;
10823;SDS011;39116;59.332;18.034;2022-10-24T06:59:09;3.85;;;2.45;;
10823;SDS011;39116;59.332;18.034;2022-10-24T07:01:36;2.05;;;1.10;;
10823;SDS011;39116;59.332;18.034;2022-10-24T07:04:02;1.45;;;0.90;;
10823;SDS011;39116;59.332;18.034;2022-10-24T07:06:30;1.42;;;1.05;;
10823;SDS011;39116;59.332;18.034;2022-10-24T07:08:57;1.30;;;1.00;;
10823;SDS011;39116;59.332;18.034;2022-10-24T07:11:25;3.10;;;1.00;;
10823;SDS011;39116;59.332;18.034;2022-10-24T07:13:52;4.47;;;1.20;;
10823;SDS011;39116;59.332;18.034;2022-10-24T07:16:19;2.22;;;1.00;;
10823;SDS011;39116;59.332;18.034;2022-10-24T07:18:45;3.05;;;1.30;;
10823;SDS011;39116;59.332;18.034;2022-10-24T07:21:13;2.22;;;1.25;;
10823;SDS011;39116;59.332;18.034;2022-10-24T07:23:40;1.42;;;0.90;;
10823;SDS011;39116;59.332;18.034;2022-10-24T07:26:07;1.60;;;0.80;;
10823;SDS011;39116;59.332;18.034;2022-10-24T07:28:35;1.02;;;0.90;;
10823;SDS011;39116;59.332;18.034;2022-10-24T07:31:02;3.58;;;1.05;;
10823;SDS011;39116;59.332;18.034;2022-10-24T07:33:29;1.13;;;0.90;;
10823;SDS011;39116;59.332;18.034;2022-10-24T07:35:55;2.72;;;1.10;;
10823;SDS011;39116;59.332;18.034;2022-10-24T07:38:22;2.60;;;1.00;;
10823;SDS011;39116;59.332;18.034;2022-10-24T07:40:49;0.98;;;0.88;;
10823;SDS011;39116;59.332;18.034;2022-10-24T07:43:15;4.00;;;1.27;;
10823;SDS011;39116;59.332;18.034;2022-10-24T07:45:43;2.40;;;0.98;;
10823;SDS011;39116;59.332;18.034;2022-10-24T07:48:10;0.98;;;0.70;;
10823;SDS011;39116;59.332;18.034;2022-10-24T07:50:40;1.75;;;0.90;;
10823;SDS011;39116;59.332;18.034;2022-10-24T07:53:06;1.30;;;1.13;;
10823;SDS011;39116;59.332;18.034;2022-10-24T07:55:33;11.55;;;6.70;;
10823;SDS011;39116;59.332;18.034;2022-10-24T07:57:59;4.50;;;2.80;;
10823;SDS011;39116;59.332;18.034;2022-10-24T08:00:26;1.30;;;1.05;;
10823;SDS011;39116;59.332;18.034;2022-10-24T08:02:54;1.85;;;1.20;;
10823;SDS011;39116;59.332;18.034;2022-10-24T08:05:20;1.30;;;0.93;;
10823;SDS011;39116;59.332;18.034;2022-10-24T08:07:47;2.95;;;1.30;;
10823;SDS011;39116;59.332;18.034;2022-10-24T08:10:13;2.33;;;1.10;;
10823;SDS011;39116;59.332;18.034;2022-10-24T08:12:40;1.30;;;1.10;;
10823;SDS011;39116;59.332;18.034;2022-10-24T08:15:06;1.58;;;1.00;;
10823;SDS011;39116;59.332;18.034;2022-10-24T08:17:33;2.80;;;1.05;;
10823;SDS011;39116;59.332;18.034;2022-10-24T08:20:02;2.65;;;1.30;;
10823;SDS011;39116;59.332;18.034;2022-10-24T08:22:28;5.00;;;1.20;;
10823;SDS011;39116;59.332;18.034;2022-10-24T08:24:55;2.83;;;1.20;;
10823;SDS011;39116;59.332;18.034;2022-10-24T08:27:21;2.50;;;1.00;;
10823;SDS011;39116;59.332;18.034;2022-10-24T08:29:48;3.75;;;1.58;;
10823;SDS011;39116;59.332;18.034;2022-10-24T08:32:14;1.65;;;1.02;;
10823;SDS011;39116;59.332;18.034;2022-10-24T08:34:40;3.20;;;1.00;;
10823;SDS011;39116;59.332;18.034;2022-10-24T08:37:08;1.95;;;0.90;;
10823;SDS011;39116;59.332;18.034;2022-10-24T08:39:36;4.15;;;1.17;;
10823;SDS011;39116;59.332;18.034;2022-10-24T08:42:03;2.35;;;1.00;;
10823;SDS011;39116;59.332;18.034;2022-10-24T08:44:32;1.73;;;1.10;;
10823;SDS011;39116;59.332;18.034;2022-10-24T08:47:01;1.60;;;1.00;;
10823;SDS011;39116;59.332;18.034;2022-10-24T08:49:33;1.98;;;1.20;;
10823;SDS011;39116;59.332;18.034;2022-10-24T08:52:02;2.15;;;1.20;;
10823;SDS011;39116;59.332;18.034;2022-10-24T08:54:31;2.90;;;1.20;;
10823;SDS011;39116;59.332;18.034;2022-10-24T08:57:01;1.77;;;1.15;;
10823;SDS011;39116;59.332;18.034;2022-10-24T08:59:28;1.63;;;1.13;;
10823;SDS011;39116;59.332;18.034;2022-10-24T09:01:56;1.67;;;1.10;;
10823;SDS011;39116;59.332;18.034;2022-10-24T09:04:24;2.88;;;1.73;;
10823;SDS011;39116;59.332;18.034;2022-10-24T09:06:52;2.53;;;1.50;;
10823;SDS011;39116;59.332;18.034;2022-10-24T09:09:20;3.50;;;1.10;;
10823;SDS011;39116;59.332;18.034;2022-10-24T09:11:50;1.80;;;1.38;;
10823;SDS011;39116;59.332;18.034;2022-10-24T09:14:18;2.65;;;0.98;;
10823;SDS011;39116;59.332;18.034;2022-10-24T09:16:47;4.18;;;1.30;;
10823;SDS011;39116;59.332;18.034;2022-10-24T09:19:16;1.38;;;0.88;;
10823;SDS011;39116;59.332;18.034;2022-10-24T09:21:43;2.45;;;0.98;;
10823;SDS011;39116;59.332;18.034;2022-10-24T09:24:14;2.15;;;1.20;;
10823;SDS011;39116;59.332;18.034;2022-10-24T09:26:42;2.85;;;1.20;;
10823;SDS011;39116;59.332;18.034;2022-10-24T09:29:11;1.70;;;1.10;;
10823;SDS011;39116;59.332;18.034;2022-10-24T09:31:37;4.45;;;1.10;;
10823;SDS011;39116;59.332;18.034;2022-10-24T09:34:05;3.15;;;1.20;;
10823;SDS011;39116;59.332;18.034;2022-10-24T09:36:31;3.05;;;1.13;;
10823;SDS011;39116;59.332;18.034;2022-10-24T09:39:01;3.28;;;1.00;;
10823;SDS011;39116;59.332;18.034;2022-10-24T09:41:46;1.10;;;0.90;;
10823;SDS011;39116;59.332;18.034;2022-10-24T09:44:26;2.33;;;1.10;;
10823;SDS011;39116;59.332;18.034;2022-10-24T09:46:53;2.47;;;0.93;;
10823;SDS011;39116;59.332;18.034;2022-10-24T09:49:20;2.88;;;1.00;;
10823;SDS011;39116;59.332;18.034;2022-10-24T09:51:48;2.70;;;0.80;;
10823;SDS011;39116;59.332;18.034;2022-10-24T09:54:23;1.83;;;0.90;;
10823;SDS011;39116;59.332;18.034;2022-10-24T09:56:53;1.10;;;1.00;;
10823;SDS011;39116;59.332;18.034;2022-10-24T09:59:28;7.10;;;2.20;;
10823;SDS011;39116;59.332;18.034;2022-10-24T10:02:03;4.43;;;1.63;;
10823;SDS011;39116;59.332;18.034;2022-10-24T10:04:33;3.88;;;1.35;;
10823;SDS011;39116;59.332;18.034;2022-10-24T10:06:59;5.03;;;1.35;;
10823;SDS011;39116;59.332;18.034;2022-10-24T10:09:33;6.30;;;1.60;;
10823;SDS011;39116;59.332;18.034;2022-10-24T10:12:05;3.30;;;2.00;;
10823;SDS011;39116;59.332;18.034;2022-10-24T10:14:47;4.43;;;2.10;;
10823;SDS011;39116;59.332;18.034;2022-10-24T10:17:17;4.78;;;2.28;;
10823;SDS011;39116;59.332;18.034;2022-10-24T10:19:46;3.13;;;1.83;;
10823;SDS011;39116;59.332;18.034;2022-10-24T10:22:20;1.70;;;1.50;;
10823;SDS011;39116;59.332;18.034;2022-10-24T10:24:47;3.88;;;1.20;;
10823;SDS011;39116;59.332;18.034;2022-10-24T10:27:27;4.65;;;1.52;;
10823;SDS011;39116;59.332;18.034;2022-10-24T10:30:14;2.90;;;1.50;;
10823;SDS011;39116;59.332;18.034;2022-10-24T10:32:42;2.95;;;1.30;;
10823;SDS011;39116;59.332;18.034;2022-10-24T10:35:10;4.18;;;1.52;;
10823;SDS011;39116;59.332;18.034;2022-10-24T10:37:39;2.30;;;1.20;;
10823;SDS011;39116;59.332;18.034;2022-10-24T10:40:15;2.38;;;1.40;;
10823;SDS011;39116;59.332;18.034;2022-10-24T10:42:46;2.53;;;1.27;;
10823;SDS011;39116;59.332;18.034;2022-10-24T10:45:18;2.42;;;1.15;;
10823;SDS011;39116;59.332;18.034;2022-10-24T10:47:55;1.20;;;1.10;;
10823;SDS011;39116;59.332;18.034;2022-10-24T10:50:26;4.10;;;1.55;;
10823;SDS011;39116;59.332;18.034;2022-10-24T10:52:54;3.20;;;1.15;;
10823;SDS011;39116;59.332;18.034;2022-10-24T10:55:23;1.33;;;1.10;;
10823;SDS011;39116;59.332;18.034;2022-10-24T10:57:52;2.88;;;1.10;;
10823;SDS011;39116;59.332;18.034;2022-10-24T11:00:21;3.63;;;1.27;;
10823;SDS011;39116;59.332;18.034;2022-10-24T11:02:55;2.72;;;1.25;;
10823;SDS011;39116;59.332;18.034;2022-10-24T11:08:18;2.08;;;1.00;;
10823;SDS011;39116;59.332;18.034;2022-10-24T11:10:50;1.80;;;1.02;;
10823;SDS011;39116;59.332;18.034;2022-10-24T11:13:18;3.45;;;1.30;;
10823;SDS011;39116;59.332;18.034;2022-10-24T11:15:48;1.85;;;1.20;;
10823;SDS011;39116;59.332;18.034;2022-10-24T11:18:16;2.92;;;1.48;;
10823;SDS011;39116;59.332;18.034;2022-10-24T11:20:47;3.22;;;1.40;;
10823;SDS011;39116;59.332;18.034;2022-10-24T11:23:15;3.33;;;1.50;;
10823;SDS011;39116;59.332;18.034;2022-10-24T11:25:45;1.85;;;1.05;;
10823;SDS011;39116;59.332;18.034;2022-10-24T11:28:14;2.08;;;1.00;;
10823;SDS011;39116;59.332;18.034;2022-10-24T11:30:43;3.08;;;1.33;;
10823;SDS011;39116;59.332;18.034;2022-10-24T11:33:14;2.17;;;0.95;;
10823;SDS011;39116;59.332;18.034;2022-10-24T11:35:50;1.73;;;1.10;;
10823;SDS011;39116;59.332;18.034;2022-10-24T11:38:19;2.33;;;1.10;;
10823;SDS011;39116;59.332;18.034;2022-10-24T11:40:47;3.47;;;1.13;;
10823;SDS011;39116;59.332;18.034;2022-10-24T11:43:16;3.05;;;1.10;;
10823;SDS011;39116;59.332;18.034;2022-10-24T11:45:46;1.88;;;0.90;;
10823;SDS011;39116;59.332;18.034;2022-10-24T11:48:16;2.78;;;1.00;;
10823;SDS011;39116;59.332;18.034;2022-10-24T11:50:45;2.60;;;1.00;;
10823;SDS011;39116;59.332;18.034;2022-10-24T11:53:19;2.30;;;1.20;;
10823;SDS011;39116;59.332;18.034;2022-10-24T11:55:49;2.60;;;1.17;;
10823;SDS011;39116;59.332;18.034;2022-10-24T11:58:18;1.40;;;0.98;;
10823;SDS011;39116;59.332;18.034;2022-10-24T12:00:57;1.77;;;1.20;;
10823;SDS011;39116;59.332;18.034;2022-10-24T12:06:26;5.85;;;1.35;;
10823;SDS011;39116;59.332;18.034;2022-10-24T12:11:48;5.00;;;1.55;;
10823;SDS011;39116;59.332;18.034;2022-10-24T12:14:30;2.58;;;1.08;;
10823;SDS011;39116;59.332;18.034;2022-10-24T12:17:05;2.45;;;1.05;;
10823;SDS011;39116;59.332;18.034;2022-10-24T12:19:37;2.55;;;0.98;;
10823;SDS011;39116;59.332;18.034;2022-10-24T12:22:06;5.05;;;0.95;;
10823;SDS011;39116;59.332;18.034;2022-10-24T12:24:33;1.45;;;0.77;;
10823;SDS011;39116;59.332;18.034;2022-10-24T12:27:03;2.22;;;1.17;;
10823;SDS011;39116;59.332;18.034;2022-10-24T12:29:31;5.35;;;1.20;;
10823;SDS011;39116;59.332;18.034;2022-10-24T12:31:58;2.15;;;1.20;;
10823;SDS011;39116;59.332;18.034;2022-10-24T12:34:29;2.25;;;0.98;;
10823;SDS011;39116;59.332;18.034;2022-10-24T12:37:03;3.00;;;1.38;;
10823;SDS011;39116;59.332;18.034;2022-10-24T12:39:32;2.20;;;1.15;;
10823;SDS011;39116;59.332;18.034;2022-10-24T12:41:59;2.88;;;1.30;;
10823;SDS011;39116;59.332;18.034;2022-10-24T12:44:39;3.30;;;1.20;;
10823;SDS011;39116;59.332;18.034;2022-10-24T12:49:47;2.15;;;1.40;;
10823;SDS011;39116;59.332;18.034;2022-10-24T12:54:57;1.73;;;1.20;;
10823;SDS011;39116;59.332;18.034;2022-10-24T12:57:24;4.22;;;1.65;;
10823;SDS011;39116;59.332;18.034;2022-10-24T12:59:52;2.65;;;1.20;;
10823;SDS011;39116;59.332;18.034;2022-10-24T13:02:25;3.80;;;1.50;;
10823;SDS011;39116;59.332;18.034;2022-10-24T13:04:56;6.60;;;1.60;;
10823;SDS011;39116;59.332;18.034;2022-10-24T13:07:29;3.65;;;1.30;;
10823;SDS011;39116;59.332;18.034;2022-10-24T13:10:06;2.78;;;1.27;;
10823;SDS011;39116;59.332;18.034;2022-10-24T13:12:48;5.20;;;1.38;;
10823;SDS011;39116;59.332;18.034;2022-10-24T13:15:21;4.35;;;1.55;;
10823;SDS011;39116;59.332;18.034;2022-10-24T13:17:51;1.75;;;1.30;;
10823;SDS011;39116;59.332;18.034;2022-10-24T13:20:24;3.45;;;1.70;;
10823;SDS011;39116;59.332;18.034;2022-10-24T13:22:58;2.90;;;1.60;;
10823;SDS011;39116;59.332;18.034;2022-10-24T13:25:30;1.90;;;1.20;;
10823;SDS011;39116;59.332;18.034;2022-10-24T13:30:44;4.18;;;1.50;;
10823;SDS011;39116;59.332;18.034;2022-10-24T13:36:10;3.20;;;1.40;;
10823;SDS011;39116;59.332;18.034;2022-10-24T13:38:43;1.63;;;1.20;;
10823;SDS011;39116;59.332;18.034;2022-10-24T13:41:12;1.67;;;1.30;;
10823;SDS011;39116;59.332;18.034;2022-10-24T13:43:43;2.65;;;1.50;;
10823;SDS011;39116;59.332;18.034;2022-10-24T13:46:11;2.28;;;1.25;;
10823;SDS011;39116;59.332;18.034;2022-10-24T13:48:44;1.42;;;1.33;;
10823;SDS011;39116;59.332;18.034;2022-10-24T13:51:12;2.88;;;1.50;;
10823;SDS011;39116;59.332;18.034;2022-10-24T13:53:42;2.40;;;1.40;;
10823;SDS011;39116;59.332;18.034;2022-10-24T13:56:13;5.82;;;1.80;;
10823;SDS011;39116;59.332;18.034;2022-10-24T13:58:40;2.53;;;1.60;;
10823;SDS011;39116;59.332;18.034;2022-10-24T14:01:10;2.45;;;1.30;;
10823;SDS011;39116;59.332;18.034;2022-10-24T14:03:40;3.65;;;1.70;;
10823;SDS011;39116;59.332;18.034;2022-10-24T14:06:08;3.63;;;1.40;;
10823;SDS011;39116;59.332;18.034;2022-10-24T14:08:35;2.10;;;1.40;;
10823;SDS011;39116;59.332;18.034;2022-10-24T14:11:02;3.58;;;1.70;;
10823;SDS011;39116;59.332;18.034;2022-10-24T14:13:32;2.80;;;1.25;;
10823;SDS011;39116;59.332;18.034;2022-10-24T14:16:00;2.00;;;1.65;;
10823;SDS011;39116;59.332;18.034;2022-10-24T14:18:27;3.22;;;1.70;;
10823;SDS011;39116;59.332;18.034;2022-10-24T14:20:54;2.28;;;1.35;;
10823;SDS011;39116;59.332;18.034;2022-10-24T14:23:25;3.90;;;1.52;;
10823;SDS011;39116;59.332;18.034;2022-10-24T14:25:53;3.13;;;1.75;;
10823;SDS011;39116;59.332;18.034;2022-10-24T14:28:20;3.78;;;2.05;;
10823;SDS011;39116;59.332;18.034;2022-10-24T14:30:52;2.88;;;1.52;;
10823;SDS011;39116;59.332;18.034;2022-10-24T14:33:20;2.83;;;1.90;;
10823;SDS011;39116;59.332;18.034;2022-10-24T14:35:47;4.25;;;1.90;;
10823;SDS011;39116;59.332;18.034;2022-10-24T14:38:14;3.72;;;2.10;;
10823;SDS011;39116;59.332;18.034;2022-10-24T14:40:41;2.42;;;1.60;;
10823;SDS011;39116;59.332;18.034;2022-10-24T14:43:09;3.78;;;1.67;;
10823;SDS011;39116;59.332;18.034;2022-10-24T14:45:37;3.67;;;2.00;;
10823;SDS011;39116;59.332;18.034;2022-10-24T14:48:12;2.95;;;1.70;;
10823;SDS011;39116;59.332;18.034;2022-10-24T14:50:41;4.60;;;2.15;;
10823;SDS011;39116;59.332;18.034;2022-10-24T14:53:19;4.32;;;2.60;;
10823;SDS011;39116;59.332;18.034;2022-10-24T14:55:48;5.00;;;1.90;;
10823;SDS011;39116;59.332;18.034;2022-10-24T14:58:19;5.57;;;2.35;;
10823;SDS011;39116;59.332;18.034;2022-10-24T15:00:46;4.85;;;1.85;;